createdAt,value
2019-05-19T00:01:52.451Z,38.40
2019-05-19T00:04:21.999Z,38.50
2019-05-19T00:06:51.903Z,38.70
2019-05-19T00:09:21.493Z,39.60
2019-05-19T00:11:51.022Z,39.30
2019-05-19T00:14:20.686Z,39.30
2019-05-19T00:16:50.255Z,39.60
2019-05-19T00:19:26.902Z,40.00
2019-05-19T00:21:51.109Z,40.00
2019-05-19T00:24:20.705Z,39.90
2019-05-19T00:26:50.543Z,40.00
2019-05-19T00:29:32.482Z,40.50
2019-05-19T00:32:02.275Z,40.40
2019-05-19T00:34:31.938Z,40.40
2019-05-19T00:37:01.809Z,40.40
2019-05-19T00:39:31.767Z,40.50
2019-05-19T00:42:01.310Z,40.50
2019-05-19T00:44:31.187Z,40.50
2019-05-19T00:47:00.747Z,40.60
2019-05-19T00:49:41.003Z,40.60
2019-05-19T00:52:02.246Z,40.70
2019-05-19T00:54:31.955Z,41.00
2019-05-19T00:57:04.182Z,40.90
2019-05-19T00:59:34.271Z,40.80
2019-05-19T01:02:03.871Z,41.70
2019-05-19T01:04:33.427Z,41.10
2019-05-19T01:07:03.022Z,41.70
2019-05-19T01:09:32.650Z,41.10
2019-05-19T01:12:02.235Z,41.10
2019-05-19T01:14:31.831Z,41.20
2019-05-19T01:17:03.482Z,41.70
2019-05-19T01:19:33.352Z,41.10
2019-05-19T01:22:03.254Z,41.30
2019-05-19T01:24:33.160Z,41.70
2019-05-19T01:27:02.750Z,41.50
2019-05-19T01:29:32.390Z,41.50
2019-05-19T01:32:01.950Z,41.70
2019-05-19T01:34:31.766Z,42.20
2019-05-19T01:37:01.634Z,42.00
2019-05-19T01:39:31.307Z,42.00
2019-05-19T01:42:00.898Z,41.90
2019-05-19T01:44:30.713Z,42.00
2019-05-19T01:47:00.554Z,42.30
2019-05-19T01:49:30.118Z,42.10
2019-05-19T01:52:00.107Z,42.10
2019-05-19T01:54:29.703Z,42.10
2019-05-19T01:56:59.596Z,42.30
2019-05-19T01:59:29.306Z,42.40
2019-05-19T02:01:59.056Z,42.50
2019-05-19T02:04:28.649Z,42.60
2019-05-19T02:06:58.333Z,42.50
2019-05-19T02:09:27.903Z,42.50
2019-05-19T02:11:57.588Z,42.80
2019-05-19T02:14:27.222Z,42.90
2019-05-19T02:16:56.832Z,43.30
2019-05-19T02:19:26.390Z,43.20
2019-05-19T02:21:55.970Z,43.10
2019-05-19T02:24:25.574Z,43.30
2019-05-19T02:26:55.229Z,43.20
2019-05-19T02:29:24.807Z,43.30
2019-05-19T02:31:54.689Z,43.50
2019-05-19T02:34:24.271Z,43.50
2019-05-19T02:36:53.843Z,43.30
2019-05-19T02:39:23.751Z,43.40
2019-05-19T02:41:53.285Z,43.40
2019-05-19T02:44:23.095Z,43.50
2019-05-19T02:46:52.667Z,43.40
2019-05-19T02:49:23.008Z,43.60
2019-05-19T02:51:52.580Z,43.60
2019-05-19T02:54:26.733Z,43.80
2019-05-19T02:56:56.633Z,43.70
2019-05-19T02:59:26.406Z,43.80
2019-05-19T03:02:04.862Z,43.80
2019-05-19T03:04:35.503Z,43.80
2019-05-19T03:07:05.109Z,44.00
2019-05-19T03:09:34.665Z,44.10
2019-05-19T03:12:04.294Z,44.00
2019-05-19T03:14:34.109Z,44.10
2019-05-19T03:17:03.959Z,44.10
2019-05-19T03:19:33.777Z,44.10
2019-05-19T03:22:03.387Z,44.20
2019-05-19T03:24:33.226Z,44.20
2019-05-19T03:27:02.884Z,44.30
2019-05-19T03:29:37.198Z,44.20
2019-05-19T03:32:25.847Z,44.20
2019-05-19T03:35:03.637Z,44.20
2019-05-19T03:37:34.383Z,44.30
2019-05-19T03:40:05.920Z,44.30
2019-05-19T03:42:35.470Z,44.20
2019-05-19T03:45:05.064Z,44.20
2019-05-19T03:47:34.653Z,44.30
2019-05-19T03:50:04.417Z,44.20
2019-05-19T03:52:34.275Z,44.10
2019-05-19T03:55:04.042Z,44.20
2019-05-19T03:57:33.923Z,44.20
2019-05-19T04:00:35.830Z,44.20
2019-05-19T04:03:05.404Z,44.10
2019-05-19T04:05:35.025Z,44.10
2019-05-19T04:08:04.675Z,44.20
2019-05-19T04:10:34.583Z,44.40
2019-05-19T04:13:04.155Z,44.40
2019-05-19T04:15:33.783Z,44.40
2019-05-19T04:18:03.362Z,44.40
2019-05-19T04:20:32.911Z,44.40
2019-05-19T04:23:20.614Z,44.40
2019-05-19T04:25:49.119Z,44.30
2019-05-19T04:28:20.701Z,44.30
2019-05-19T04:30:50.358Z,44.30
2019-05-19T04:33:19.945Z,44.30
2019-05-19T04:35:49.524Z,44.40
2019-05-19T04:38:19.102Z,44.50
2019-05-19T04:40:48.674Z,44.50
2019-05-19T04:43:18.505Z,44.60
2019-05-19T04:45:48.383Z,44.70
2019-05-19T04:48:17.951Z,44.80
2019-05-19T04:50:47.532Z,44.80
2019-05-19T04:53:17.654Z,44.80
2019-05-19T04:58:44.314Z,44.80
2019-05-19T05:01:14.150Z,44.70
2019-05-19T05:03:43.716Z,45.30
2019-05-19T05:06:14.266Z,45.90
2019-05-19T05:08:45.065Z,46.30
2019-05-19T05:11:14.630Z,46.20
2019-05-19T05:13:44.518Z,45.60
2019-05-19T05:16:14.222Z,44.90
2019-05-19T05:18:44.050Z,43.90
2019-05-19T05:21:13.976Z,42.80
2019-05-19T05:23:49.025Z,42.10
2019-05-19T05:26:19.775Z,40.90
2019-05-19T05:28:49.310Z,40.00
2019-05-19T05:31:18.876Z,39.40
2019-05-19T05:33:48.442Z,38.50
2019-05-19T05:36:18.002Z,37.50
2019-05-19T05:38:47.940Z,36.60
2019-05-19T05:41:17.761Z,35.40
2019-05-19T05:43:47.412Z,34.50
2019-05-19T05:46:16.964Z,33.90
2019-05-19T05:48:46.505Z,32.70
2019-05-19T05:51:16.349Z,31.50
2019-05-19T05:53:45.959Z,31.00
2019-05-19T05:56:15.542Z,31.00
2019-05-19T05:58:45.133Z,30.80
2019-05-19T06:01:33.990Z,30.50
2019-05-19T06:04:03.579Z,29.80
2019-05-19T06:06:33.155Z,30.00
2019-05-19T06:09:02.726Z,30.00
2019-05-19T06:11:32.294Z,30.00
2019-05-19T06:14:01.881Z,30.00
2019-05-19T06:16:31.687Z,29.70
2019-05-19T06:19:01.307Z,29.30
2019-05-19T06:21:30.846Z,29.20
2019-05-19T06:24:00.426Z,29.20
2019-05-19T06:26:29.995Z,29.10
2019-05-19T06:29:06.272Z,28.90
2019-05-19T06:31:35.815Z,28.70
2019-05-19T06:34:05.751Z,28.40
2019-05-19T06:36:35.606Z,28.00
2019-05-19T06:39:06.860Z,27.20
2019-05-19T06:41:36.475Z,26.70
2019-05-19T06:44:06.067Z,26.70
2019-05-19T06:46:35.751Z,26.30
2019-05-19T06:49:06.183Z,26.30
2019-05-19T06:51:35.718Z,26.40
2019-05-19T06:54:05.303Z,26.70
2019-05-19T06:56:35.188Z,25.50
2019-05-19T06:59:49.256Z,24.70
2019-05-19T07:02:18.871Z,24.20
2019-05-19T07:04:48.566Z,24.00
2019-05-19T07:07:18.170Z,24.50
2019-05-19T07:09:57.814Z,24.50
2019-05-19T07:12:19.258Z,24.50
2019-05-19T07:14:48.839Z,24.30
2019-05-19T07:17:18.415Z,24.00
2019-05-19T07:19:47.978Z,23.80
2019-05-19T07:22:17.535Z,23.90
2019-05-19T07:24:47.102Z,24.00
2019-05-19T07:27:17.170Z,23.80
2019-05-19T07:29:47.273Z,23.70
2019-05-19T07:32:16.894Z,23.80
2019-05-19T07:34:46.866Z,24.00
2019-05-19T07:37:36.591Z,24.40
2019-05-19T07:40:06.250Z,24.70
2019-05-19T07:42:35.822Z,24.80
2019-05-19T07:45:05.914Z,24.40
2019-05-19T07:47:35.554Z,23.90
2019-05-19T07:50:06.043Z,23.60
2019-05-19T07:52:35.643Z,23.20
2019-05-19T07:55:34.555Z,22.90
2019-05-19T07:58:04.239Z,22.70
2019-05-19T08:00:33.860Z,22.50
2019-05-19T08:03:03.470Z,22.30
2019-05-19T08:05:33.776Z,21.60
2019-05-19T08:08:03.379Z,21.10
2019-05-19T08:10:32.975Z,21.10
2019-05-19T08:13:02.842Z,20.50
2019-05-19T08:15:32.914Z,20.10
2019-05-19T08:18:03.923Z,19.60
2019-05-19T08:20:35.673Z,19.40
2019-05-19T08:23:05.656Z,19.00
2019-05-19T08:25:35.226Z,18.90
2019-05-19T08:28:08.724Z,18.60
2019-05-19T08:30:36.952Z,18.60
2019-05-19T08:33:06.813Z,17.80
2019-05-19T08:35:36.430Z,17.50
2019-05-19T08:38:06.066Z,16.90
2019-05-19T08:40:35.773Z,16.50
2019-05-19T08:43:08.738Z,15.90
2019-05-19T08:45:41.659Z,15.80
2019-05-19T08:48:19.715Z,15.70
2019-05-19T08:50:49.051Z,15.30
2019-05-19T08:53:18.742Z,14.80
2019-05-19T08:55:49.847Z,14.90
2019-05-19T08:58:21.331Z,14.80
2019-05-19T09:00:51.277Z,14.70
2019-05-19T09:03:21.862Z,14.40
2019-05-19T09:05:51.603Z,14.10
2019-05-19T09:08:21.194Z,14.10
2019-05-19T09:10:51.170Z,13.80
2019-05-19T09:13:20.841Z,14.00
2019-05-19T09:15:50.676Z,13.40
2019-05-19T09:18:20.454Z,13.30
2019-05-19T09:20:50.030Z,13.20
2019-05-19T09:23:20.630Z,13.10
2019-05-19T09:25:50.438Z,13.10
2019-05-19T09:28:20.104Z,13.10
2019-05-19T09:30:49.803Z,12.80
2019-05-19T09:33:19.513Z,12.50
2019-05-19T09:35:53.906Z,12.60
2019-05-19T09:38:24.530Z,12.60
2019-05-19T09:40:54.419Z,12.60
2019-05-19T09:43:24.058Z,12.60
2019-05-19T09:45:53.922Z,12.40
2019-05-19T09:48:23.834Z,12.20
2019-05-19T09:50:53.578Z,12.10
2019-05-19T09:53:23.355Z,12.00
2019-05-19T09:55:52.989Z,11.90
2019-05-19T09:58:22.578Z,11.70
2019-05-19T10:00:52.455Z,11.50
2019-05-19T10:03:22.187Z,11.50
2019-05-19T10:05:52.148Z,11.50
2019-05-19T10:08:32.095Z,11.50
2019-05-19T10:11:24.579Z,11.00
2019-05-19T10:13:54.191Z,11.00
2019-05-19T10:16:23.796Z,10.70
2019-05-19T10:18:53.520Z,10.70
2019-05-19T10:21:23.415Z,11.30
2019-05-19T10:23:53.026Z,11.10
2019-05-19T10:26:22.685Z,11.00
2019-05-19T10:28:52.520Z,11.00
2019-05-19T10:31:22.662Z,10.90
2019-05-19T10:33:52.566Z,10.50
2019-05-19T10:36:22.151Z,10.60
2019-05-19T10:38:52.131Z,10.70
2019-05-19T10:41:21.886Z,10.80
2019-05-19T10:44:00.844Z,10.90
2019-05-19T10:46:31.159Z,11.00
2019-05-19T10:49:01.262Z,10.80
2019-05-19T10:51:32.150Z,10.90
2019-05-19T10:54:01.876Z,10.80
2019-05-19T10:56:31.487Z,10.80
2019-05-19T10:59:01.096Z,11.00
2019-05-19T11:01:30.659Z,11.20
2019-05-19T11:04:00.512Z,11.70
2019-05-19T11:06:30.167Z,11.40
2019-05-19T11:08:59.778Z,11.50
2019-05-19T11:11:29.403Z,11.80
2019-05-19T11:13:59.396Z,11.90
2019-05-19T11:17:08.063Z,11.80
2019-05-19T11:19:37.894Z,11.90
2019-05-19T11:22:07.638Z,11.90
2019-05-19T11:24:37.211Z,11.90
2019-05-19T11:27:06.783Z,11.90
2019-05-19T11:29:36.363Z,12.10
2019-05-19T11:32:05.911Z,12.20
2019-05-19T11:34:36.548Z,12.10
2019-05-19T11:37:07.406Z,12.30
2019-05-19T11:39:37.846Z,12.30
2019-05-19T11:42:07.413Z,12.60
2019-05-19T11:44:37.111Z,12.70
2019-05-19T11:47:06.699Z,12.90
2019-05-19T11:49:36.321Z,12.80
2019-05-19T11:52:05.887Z,12.90
2019-05-19T11:54:35.535Z,13.00
2019-05-19T11:57:05.167Z,13.10
2019-05-19T11:59:34.725Z,13.10
2019-05-19T12:02:04.268Z,13.20
2019-05-19T12:04:34.111Z,13.40
2019-05-19T12:07:04.947Z,13.60
2019-05-19T12:09:34.806Z,13.90
2019-05-19T12:12:04.351Z,13.70
2019-05-19T12:14:33.925Z,13.70
2019-05-19T12:17:03.606Z,14.10
2019-05-19T12:19:33.242Z,14.20
2019-05-19T12:22:03.600Z,14.50
2019-05-19T12:24:34.549Z,14.70
2019-05-19T12:27:04.111Z,14.90
2019-05-19T12:29:33.825Z,14.90
2019-05-19T12:32:03.458Z,14.90
2019-05-19T12:34:42.359Z,14.80
2019-05-19T12:37:11.958Z,15.10
2019-05-19T12:39:41.627Z,15.20
2019-05-19T12:42:11.278Z,15.40
2019-05-19T12:44:40.915Z,15.60
2019-05-19T12:47:10.558Z,15.80
2019-05-19T12:49:40.162Z,15.80
2019-05-19T12:52:09.790Z,15.80
2019-05-19T12:54:39.525Z,15.90
2019-05-19T12:57:09.083Z,16.10
2019-05-19T12:59:38.888Z,16.30
2019-05-19T13:02:08.583Z,16.40
2019-05-19T13:04:38.317Z,16.80
2019-05-19T13:07:08.135Z,17.10
2019-05-19T13:09:37.689Z,17.30
2019-05-19T13:12:07.669Z,17.60
2019-05-19T13:14:37.739Z,17.90
2019-05-19T13:17:07.422Z,18.00
2019-05-19T13:19:37.292Z,18.10
2019-05-19T13:22:06.964Z,18.50
2019-05-19T13:24:36.668Z,18.80
2019-05-19T13:27:06.236Z,18.60
2019-05-19T13:29:37.328Z,18.80
2019-05-19T13:32:07.120Z,18.60
2019-05-19T13:34:36.811Z,18.80
2019-05-19T13:37:06.826Z,18.80
2019-05-19T13:39:36.667Z,19.20
2019-05-19T13:42:06.321Z,19.10
2019-05-19T13:44:36.183Z,19.20
2019-05-19T13:47:06.226Z,19.10
2019-05-19T13:49:35.987Z,19.30
2019-05-19T13:52:05.527Z,19.50
2019-05-19T13:54:35.538Z,19.60
2019-05-19T13:57:12.311Z,19.30
2019-05-19T13:59:36.924Z,19.50
2019-05-19T14:02:06.579Z,19.10
2019-05-19T14:04:46.294Z,19.00
2019-05-19T14:07:16.072Z,19.90
2019-05-19T14:09:45.923Z,20.20
2019-05-19T14:12:15.802Z,20.20
2019-05-19T14:14:45.523Z,20.20
2019-05-19T14:17:15.209Z,20.40
2019-05-19T14:19:44.931Z,20.40
2019-05-19T14:22:14.502Z,20.30
2019-05-19T14:24:44.418Z,20.10
2019-05-19T14:27:27.356Z,20.20
2019-05-19T14:29:45.803Z,20.20
2019-05-19T14:32:15.713Z,20.50
2019-05-19T14:34:45.571Z,20.80
2019-05-19T14:37:15.143Z,20.90
2019-05-19T14:39:44.755Z,20.70
2019-05-19T14:42:17.698Z,21.50
2019-05-19T14:44:47.501Z,21.80
2019-05-19T14:47:17.154Z,21.80
2019-05-19T14:49:47.143Z,21.80
2019-05-19T14:55:25.479Z,21.50
2019-05-19T14:57:55.170Z,21.60
2019-05-19T15:00:25.238Z,21.50
2019-05-19T15:02:54.926Z,21.30
2019-05-19T15:05:24.932Z,21.40
2019-05-19T15:07:54.670Z,21.40
2019-05-19T15:10:24.760Z,21.40
2019-05-19T15:12:55.236Z,21.30
2019-05-19T15:15:25.158Z,21.40
2019-05-19T15:17:54.755Z,21.70
2019-05-19T15:20:24.440Z,21.70
2019-05-19T15:23:02.673Z,21.50
2019-05-19T15:25:32.865Z,21.40
2019-05-19T15:28:05.223Z,21.60
2019-05-19T15:30:42.060Z,21.60
2019-05-19T15:33:11.767Z,21.80
2019-05-19T15:35:41.815Z,22.00
2019-05-19T15:38:12.227Z,21.90
2019-05-19T15:40:41.930Z,22.10
2019-05-19T15:43:11.634Z,22.20
2019-05-19T15:45:41.594Z,22.00
2019-05-19T15:48:11.546Z,22.20
2019-05-19T15:50:41.592Z,22.00
2019-05-19T15:53:11.582Z,22.10
2019-05-19T15:55:53.789Z,22.20
2019-05-19T15:58:21.389Z,22.10
2019-05-19T16:00:51.365Z,21.80
2019-05-19T16:03:21.079Z,21.70
2019-05-19T16:05:50.755Z,21.70
2019-05-19T16:08:21.387Z,21.60
2019-05-19T16:10:51.044Z,21.50
2019-05-19T16:13:22.029Z,21.50
2019-05-19T16:15:52.183Z,21.40
2019-05-19T16:18:23.139Z,21.30
2019-05-19T16:20:53.385Z,21.50
2019-05-19T16:23:34.652Z,21.70
2019-05-19T16:26:06.041Z,21.80
2019-05-19T16:28:37.794Z,21.90
2019-05-19T16:31:08.902Z,22.30
2019-05-19T16:33:38.779Z,22.40
2019-05-19T16:36:09.023Z,22.70
2019-05-19T16:38:39.710Z,22.30
2019-05-19T16:41:17.453Z,22.70
2019-05-19T16:43:59.751Z,22.50
2019-05-19T16:46:29.647Z,22.70
2019-05-19T16:49:00.110Z,22.70
2019-05-19T16:51:32.524Z,22.70
2019-05-19T16:54:05.655Z,22.90
2019-05-19T16:56:35.663Z,22.90
2019-05-19T16:59:05.849Z,23.10
2019-05-19T17:01:36.567Z,23.10
2019-05-19T17:04:06.797Z,23.10
2019-05-19T17:06:37.117Z,23.30
2019-05-19T17:09:07.060Z,23.20
2019-05-19T17:11:37.391Z,23.30
2019-05-19T17:14:07.098Z,23.60
2019-05-19T17:16:36.880Z,23.60
2019-05-19T17:19:06.652Z,23.70
2019-05-19T17:21:37.143Z,23.70
2019-05-19T17:24:06.948Z,24.60
2019-05-19T17:26:37.039Z,25.30
2019-05-19T17:29:06.693Z,25.60
2019-05-19T17:31:36.551Z,26.00
2019-05-19T17:34:06.131Z,26.10
2019-05-19T17:36:36.023Z,26.30
2019-05-19T17:39:07.098Z,26.60
2019-05-19T17:41:37.125Z,26.70
2019-05-19T17:44:06.957Z,26.80
2019-05-19T17:46:37.643Z,27.10
2019-05-19T17:49:07.610Z,27.20
2019-05-19T17:51:37.466Z,27.50
2019-05-19T17:54:07.378Z,27.70
2019-05-19T17:56:37.428Z,27.80
2019-05-19T17:59:16.119Z,28.00
2019-05-19T18:02:03.236Z,28.30
2019-05-19T18:04:33.313Z,28.60
2019-05-19T18:07:02.991Z,28.70
2019-05-19T18:09:33.060Z,29.00
2019-05-19T18:12:02.670Z,29.20
2019-05-19T18:14:32.633Z,29.50
2019-05-19T18:17:02.704Z,29.80
2019-05-19T18:19:32.565Z,30.00
2019-05-19T18:22:02.678Z,30.00
2019-05-19T18:24:32.353Z,30.20
2019-05-19T18:27:02.113Z,30.50
2019-05-19T18:29:32.198Z,30.50
2019-05-19T18:32:02.190Z,30.70
2019-05-19T18:34:32.499Z,30.90
2019-05-19T18:37:02.218Z,31.20
2019-05-19T18:39:31.875Z,31.60
2019-05-19T18:42:06.193Z,31.50
2019-05-19T18:44:38.960Z,31.60
2019-05-19T18:47:08.903Z,31.80
2019-05-19T18:49:39.424Z,32.00
2019-05-19T18:52:08.999Z,32.00
2019-05-19T18:54:39.168Z,32.20
2019-05-19T18:57:09.867Z,32.20
2019-05-19T18:59:47.250Z,32.30
2019-05-19T19:02:10.941Z,32.60
2019-05-19T19:04:40.546Z,32.60
2019-05-19T19:07:10.637Z,32.70
2019-05-19T19:09:41.092Z,32.70
2019-05-19T19:12:10.888Z,32.80
2019-05-19T19:14:40.569Z,32.80
2019-05-19T19:17:11.996Z,33.00
2019-05-19T19:19:44.490Z,33.30
2019-05-19T19:22:14.479Z,33.20
2019-05-19T19:24:44.419Z,33.50
2019-05-19T19:27:13.978Z,33.40
2019-05-19T19:29:44.173Z,33.70
2019-05-19T19:32:14.175Z,33.70
2019-05-19T19:34:43.891Z,33.80
2019-05-19T19:37:13.503Z,33.80
2019-05-19T19:39:43.082Z,33.80
2019-05-19T19:42:12.794Z,34.20
2019-05-19T19:44:42.642Z,34.20
2019-05-19T19:47:12.561Z,34.30
2019-05-19T19:49:42.123Z,34.60
2019-05-19T19:52:11.770Z,34.70
2019-05-19T19:54:43.034Z,34.90
2019-05-19T19:57:12.938Z,34.80
2019-05-19T19:59:42.850Z,34.80
2019-05-19T20:02:12.505Z,35.00
2019-05-19T20:04:42.453Z,35.10
2019-05-19T20:07:13.831Z,35.00
2019-05-19T20:09:43.498Z,35.20
2019-05-19T20:12:13.423Z,35.20
2019-05-19T20:14:43.440Z,35.40
2019-05-19T20:17:13.317Z,35.60
2019-05-19T20:19:43.049Z,35.80
2019-05-19T20:22:12.960Z,36.10
2019-05-19T20:24:42.842Z,36.40
2019-05-19T20:27:16.417Z,36.60
2019-05-19T20:29:47.621Z,36.70
2019-05-19T20:32:17.241Z,36.80
2019-05-19T20:34:46.914Z,36.90
2019-05-19T20:37:17.150Z,36.90
2019-05-19T20:39:47.065Z,37.10
2019-05-19T20:42:17.015Z,37.30
2019-05-19T20:44:46.915Z,37.30
2019-05-19T20:47:16.794Z,37.60
2019-05-19T20:49:46.475Z,37.50
2019-05-19T20:52:16.058Z,38.10
2019-05-19T20:54:45.942Z,38.00
2019-05-19T20:57:15.543Z,38.00
2019-05-19T20:59:45.183Z,38.20
2019-05-19T21:02:18.598Z,38.20
2019-05-19T21:04:54.578Z,38.40
2019-05-19T21:07:26.035Z,38.50
2019-05-19T21:09:55.628Z,38.60
2019-05-19T21:12:25.633Z,38.60
2019-05-19T21:14:55.199Z,38.90
2019-05-19T21:17:24.755Z,39.70
2019-05-19T21:19:54.371Z,39.20
2019-05-19T21:22:25.282Z,39.50
2019-05-19T21:24:55.190Z,39.70
2019-05-19T21:27:24.804Z,40.00
2019-05-19T21:29:55.072Z,40.20
2019-05-19T21:32:24.737Z,40.40
2019-05-19T21:34:54.406Z,40.60
2019-05-19T21:37:23.948Z,40.80
2019-05-19T21:39:53.518Z,40.70
2019-05-19T21:42:23.167Z,41.00
2019-05-19T21:44:52.734Z,41.20
2019-05-19T21:47:22.360Z,41.30
2019-05-19T21:49:52.227Z,41.40
2019-05-19T21:52:21.839Z,41.60
2019-05-19T21:54:51.395Z,41.70
2019-05-19T21:57:20.956Z,41.70
2019-05-19T21:59:50.497Z,41.90
2019-05-19T22:02:20.399Z,42.00
2019-05-19T22:04:50.026Z,42.70
2019-05-19T22:07:30.352Z,42.00
2019-05-19T22:09:59.901Z,42.10
2019-05-19T22:12:29.828Z,42.20
2019-05-19T22:14:59.394Z,42.40
2019-05-19T22:17:28.986Z,42.50
2019-05-19T22:19:58.833Z,42.50
2019-05-19T22:22:29.024Z,43.40
2019-05-19T22:25:01.414Z,42.60
2019-05-19T22:27:31.191Z,42.70
2019-05-19T22:30:00.746Z,42.90
2019-05-19T22:32:30.389Z,43.00
2019-05-19T22:35:00.248Z,43.00
2019-05-19T22:37:29.814Z,43.00
2019-05-19T22:39:59.846Z,43.10
2019-05-19T22:42:30.462Z,43.10
2019-05-19T22:45:00.027Z,43.20
2019-05-19T22:47:29.638Z,43.20
2019-05-19T22:49:59.574Z,43.00
2019-05-19T22:52:29.158Z,43.00
2019-05-19T22:54:59.211Z,43.30
2019-05-19T22:57:28.882Z,43.30
2019-05-19T22:59:58.514Z,43.30
2019-05-19T23:02:29.177Z,43.20
2019-05-19T23:04:59.027Z,43.10
2019-05-19T23:07:29.765Z,43.40
2019-05-19T23:09:59.903Z,43.30
2019-05-19T23:12:29.499Z,43.40
2019-05-19T23:14:59.371Z,43.30
2019-05-19T23:17:29.027Z,43.50
2019-05-19T23:19:58.839Z,43.70
2019-05-19T23:22:28.399Z,43.70
2019-05-19T23:24:57.965Z,43.70
2019-05-19T23:27:27.523Z,43.80
2019-05-19T23:29:57.107Z,43.90
2019-05-19T23:32:26.928Z,44.10
2019-05-19T23:34:56.471Z,44.10
2019-05-19T23:37:26.675Z,44.30
2019-05-19T23:39:56.235Z,44.20
2019-05-19T23:42:26.329Z,44.40
2019-05-19T23:44:55.906Z,44.40
2019-05-19T23:47:25.474Z,44.30
2019-05-19T23:49:55.107Z,44.30
2019-05-19T23:52:24.678Z,44.50
2019-05-19T23:54:54.343Z,44.60
2019-05-19T23:57:23.963Z,44.60
2019-05-19T23:59:53.521Z,44.60
